Terrell, TX

5:55 PM CDT on August 31, 2016 (GMT -0500)
APRSWXNET | | Change Station

Elev 505 ft 32.80 °N, 96.30 °W | Updated 49 minutes ago

Scattered Clouds
Scattered Clouds
95 °F
Feels Like 104 °F
N
0
Wind Variable Wind from East
Gusts 2.0 mph

Today
High -- | Low -- °F
--% Chance of Precip.
Yesterday
High -- | Low -- °F
Precip. -- in
Pressure 29.89 in
Visibility 10.0 miles
Clouds Scattered Clouds 6000 ft
Heat Index 104 °F
Dew Point 72 °F
Humidity 48%
Rainfall in
Snow Depth Not available.
6:59 AM 7:50 PM
Waning Crescent, 0% visible
METAR KTRL 312153Z AUTO 08008KT 10SM SCT060 34/19 A2991 RMK AO2 SLP120 T03390194 $
Pressure 29.89 in
Visibility 10.0 miles
Clouds Scattered Clouds 6000 ft
Heat Index 104 °F
Dew Point 72 °F
Humidity 48%
Rainfall in
Snow Depth Not available.
6:59 AM 7:50 PM
Waning Crescent, 0% visible
METAR KTRL 312153Z AUTO 08008KT 10SM SCT060 34/19 A2991 RMK AO2 SLP120 T03390194 $

10-Day Weather Forecast

Almanac

Astronomy

Aug. 31, 2016 Rise Set
Actual Time
Civil Twilight
Nautical Twilight
Astronomical Twilight
Moon
Length of Visible Light
Length of Day
Tomorrow will be .
, % of the Moon is Illuminated

Today's Extremes

State Highs State Lows

Community

WunderPhotos

Upload Photos

1,936,204 photos uploaded!

WunderBlog® & News

Nearby

Air Quality

  Air Quality AQ Index Pollutant
Not available.

Snow Depth

Station Depth Elevation

Earthquake Activity

City Distance Mag. Time & Date
Minimum magnitude displayed is 2.5.

Coastal Water Temperatures

Place Temperature

Stations

Nearby Weather Stations

Station Location Temp. Windchill Dew Point Humidity Wind Precip. Elev Updated Type
                   

Watches & Warnings

There are currently no watches in effect.